Time;durP1;ratioP1;P1;durP2;ratioP2;P2;SDS_P1;SDS_P2;PMS_P1;PMS_P2;Temp;Humidity;BMP_temperature;BMP_pressure;BME280_temperature;BME280_humidity;BME280_pressure;Samples;Min_cycle;Max_cycle;Signal;HPM_P1;HPM_P2
2023/06/17 00:00:30;;;;;;;6.63;3.58;;;27.40;29.30;;;;;;5107756;27;45285;-68
2023/06/17 00:02:57;;;;;;;3.63;3.33;;;27.40;29.30;;;;;;5107225;27;47275;-67
2023/06/17 00:05:24;;;;;;;3.75;3.45;;;27.40;29.30;;;;;;5107517;27;45344;-69
2023/06/17 00:07:51;;;;;;;3.65;3.22;;;27.30;29.30;;;;;;5107593;27;45377;-70
2023/06/17 00:10:18;;;;;;;3.58;3.28;;;27.30;29.30;;;;;;5107516;27;45174;-69
2023/06/17 00:12:48;;;;;;;4.82;3.60;;;27.30;29.30;;;;;;5107388;27;46385;-69
2023/06/17 00:15:16;;;;;;;4.50;3.42;;;27.20;29.30;;;;;;5107088;27;45413;-70
2023/06/17 00:17:44;;;;;;;4.93;3.80;;;27.20;29.30;;;;;;5107265;27;45338;-69
2023/06/17 00:20:12;;;;;;;4.40;3.00;;;27.20;29.40;;;;;;5106491;27;45253;-70
2023/06/17 00:22:39;;;;;;;4.22;3.60;;;27.20;29.50;;;;;;5107235;27;46912;-69
2023/06/17 00:25:07;;;;;;;4.57;3.40;;;27.10;29.40;;;;;;5107215;27;45321;-69
2023/06/17 00:27:33;;;;;;;4.53;3.28;;;27.10;29.50;;;;;;5107252;27;45321;-70
2023/06/17 00:30:02;;;;;;;4.07;3.67;;;27.10;29.50;;;;;;5107439;27;45180;-69
2023/06/17 00:32:28;;;;;;;4.28;3.28;;;27.10;29.60;;;;;;5107005;27;45461;-69
2023/06/17 00:34:55;;;;;;;3.95;3.55;;;27.00;29.60;;;;;;5106902;27;45330;-69
2023/06/17 00:37:22;;;;;;;3.63;3.33;;;27.00;29.60;;;;;;5107231;27;45204;-69
2023/06/17 00:39:49;;;;;;;3.85;3.42;;;27.00;29.60;;;;;;5107104;27;45459;-69
2023/06/17 00:42:16;;;;;;;4.47;3.67;;;27.00;29.70;;;;;;5106720;27;45281;-69
2023/06/17 00:44:43;;;;;;;4.25;3.40;;;26.90;29.70;;;;;;5106842;27;45390;-69
2023/06/17 00:47:12;;;;;;;4.15;3.75;;;26.90;29.70;;;;;;5106832;27;45292;-70
2023/06/17 00:49:41;;;;;;;3.92;3.63;;;26.90;29.70;;;;;;5107184;27;45182;-69
2023/06/17 00:52:09;;;;;;;3.72;3.30;;;26.90;29.70;;;;;;5106893;27;46497;-69
2023/06/17 00:54:36;;;;;;;6.20;3.58;;;26.90;29.80;;;;;;5106667;27;45404;-69
2023/06/17 00:57:03;;;;;;;3.92;3.63;;;26.80;29.80;;;;;;5106734;27;45308;-69
2023/06/17 00:59:30;;;;;;;3.88;3.45;;;26.80;29.80;;;;;;5106744;27;45265;-69
2023/06/17 01:01:57;;;;;;;4.07;3.67;;;26.80;29.90;;;;;;5106535;27;45447;-69
2023/06/17 01:04:25;;;;;;;3.60;3.30;;;26.70;29.90;;;;;;5106589;27;45316;-69
2023/06/17 01:06:59;;;;;;;3.95;3.55;;;26.70;29.90;;;;;;5106669;27;45266;-69
2023/06/17 01:09:29;;;;;;;4.13;3.58;;;26.70;30.00;;;;;;5106698;27;45461;-69
2023/06/17 01:11:57;;;;;;;3.53;3.22;;;26.70;30.00;;;;;;5106529;27;45198;-69
2023/06/17 01:14:24;;;;;;;4.03;3.63;;;26.60;29.90;;;;;;5106396;27;45299;-69
2023/06/17 01:16:54;;;;;;;4.05;3.58;;;26.60;30.00;;;;;;5106390;27;45357;-69
2023/06/17 01:19:22;;;;;;;4.22;3.78;;;26.60;30.00;;;;;;5106495;27;45205;-69
2023/06/17 01:21:51;;;;;;;3.80;3.50;;;26.60;30.00;;;;;;5106142;27;46595;-69
2023/06/17 01:24:26;;;;;;;3.75;3.17;;;26.50;30.00;;;;;;5106222;27;45246;-69
2023/06/17 01:26:56;;;;;;;6.20;3.42;;;26.50;30.00;;;;;;5106276;27;45298;-69
2023/06/17 01:29:23;;;;;;;4.10;3.35;;;26.50;30.00;;;;;;5106359;27;45369;-69
2023/06/17 01:31:51;;;;;;;4.10;3.70;;;26.50;30.00;;;;;;5108867;27;46511;-69
2023/06/17 01:34:19;;;;;;;3.90;3.50;;;26.50;30.00;;;;;;5109748;27;45330;-69
2023/06/17 01:36:46;;;;;;;3.63;3.33;;;26.50;30.00;;;;;;5109803;27;45252;-69
2023/06/17 01:39:12;;;;;;;5.35;3.65;;;26.40;30.00;;;;;;5109871;27;45414;-69
2023/06/17 01:41:41;;;;;;;3.67;3.38;;;26.40;30.00;;;;;;5109544;27;45232;-69
2023/06/17 01:44:08;;;;;;;3.95;3.55;;;26.40;30.00;;;;;;5109544;27;45296;-69
2023/06/17 01:46:35;;;;;;;3.88;3.55;;;26.40;30.00;;;;;;5109581;27;45280;-69
2023/06/17 01:49:01;;;;;;;4.70;3.60;;;26.30;30.00;;;;;;5109827;27;45295;-69
2023/06/17 01:51:28;;;;;;;3.17;2.97;;;26.30;30.00;;;;;;5109353;27;46714;-69
2023/06/17 01:53:55;;;;;;;3.83;3.40;;;26.30;30.10;;;;;;5109375;27;45312;-69
2023/06/17 01:56:22;;;;;;;3.75;3.45;;;26.30;30.10;;;;;;5109488;27;45421;-69
2023/06/17 01:58:50;;;;;;;5.63;3.63;;;26.30;30.10;;;;;;5109613;27;45344;-69
2023/06/17 02:01:17;;;;;;;4.00;3.55;;;26.20;30.00;;;;;;5109285;27;46401;-69
2023/06/17 02:03:44;;;;;;;4.38;3.35;;;26.20;30.10;;;;;;5109005;27;45313;-69
2023/06/17 02:06:10;;;;;;;3.63;3.30;;;26.20;30.10;;;;;;5109429;27;45309;-69
2023/06/17 02:08:38;;;;;;;3.70;3.30;;;26.20;30.20;;;;;;5106790;27;45320;-69
2023/06/17 02:11:05;;;;;;;3.88;3.30;;;26.10;30.10;;;;;;5109111;27;45440;-69
2023/06/17 02:13:31;;;;;;;4.22;3.28;;;26.10;30.10;;;;;;5109152;27;45335;-69
2023/06/17 02:16:00;;;;;;;3.55;3.17;;;26.10;30.20;;;;;;5109242;27;45377;-69
2023/06/17 02:18:27;;;;;;;3.60;3.30;;;26.10;30.20;;;;;;5109218;27;45286;-69
2023/06/17 02:20:54;;;;;;;4.85;3.70;;;26.10;30.20;;;;;;5108864;27;48708;-69
2023/06/17 02:23:20;;;;;;;3.95;3.60;;;26.00;30.20;;;;;;5108991;27;45257;-69
2023/06/17 02:25:47;;;;;;;4.03;3.47;;;26.00;30.20;;;;;;5109037;27;45432;-69
2023/06/17 02:28:14;;;;;;;3.70;3.30;;;26.00;30.20;;;;;;5109040;27;45469;-68
2023/06/17 02:30:41;;;;;;;3.42;3.13;;;26.00;31.00;;;;;;5108828;27;45409;-69
2023/06/17 02:33:11;;;;;;;3.80;3.20;;;26.00;30.30;;;;;;5108900;27;45209;-69
2023/06/17 02:35:38;;;;;;;4.05;3.10;;;25.90;30.30;;;;;;5108843;27;45347;-69
2023/06/17 02:38:05;;;;;;;3.50;3.20;;;25.90;30.40;;;;;;5108927;27;45407;-69
2023/06/17 02:40:32;;;;;;;3.85;3.50;;;25.90;30.40;;;;;;5108598;27;45383;-69
2023/06/17 02:42:58;;;;;;;4.13;3.33;;;25.90;30.30;;;;;;5107912;27;45173;-69
2023/06/17 02:45:25;;;;;;;3.85;3.33;;;25.90;30.40;;;;;;5108774;27;45345;-69
2023/06/17 02:47:52;;;;;;;4.22;3.67;;;25.80;30.40;;;;;;5108913;27;45377;-69
2023/06/17 02:50:23;;;;;;;3.92;3.53;;;25.80;30.40;;;;;;5108439;27;45292;-69
2023/06/17 02:52:57;;;;;;;3.80;3.33;;;25.80;30.40;;;;;;5108539;27;45181;-69
2023/06/17 02:55:25;;;;;;;3.25;3.05;;;25.80;30.50;;;;;;5108682;27;45278;-69
2023/06/17 02:57:52;;;;;;;3.47;3.17;;;25.80;30.50;;;;;;5108709;27;45324;-69
2023/06/17 03:00:18;;;;;;;3.42;3.13;;;25.70;30.40;;;;;;5108203;27;48672;-69
2023/06/17 03:02:45;;;;;;;3.60;3.30;;;25.70;30.50;;;;;;5108073;27;45312;-69
2023/06/17 03:05:12;;;;;;;3.97;3.58;;;25.70;30.50;;;;;;5108532;27;45389;-69
2023/06/17 03:07:40;;;;;;;3.50;3.20;;;25.70;30.60;;;;;;5108505;27;45329;-69
2023/06/17 03:10:08;;;;;;;3.83;3.45;;;25.60;30.60;;;;;;5108149;27;45294;-69
2023/06/17 03:12:35;;;;;;;4.80;3.40;;;25.60;30.60;;;;;;5108182;27;45504;-69
2023/06/17 03:15:02;;;;;;;4.70;3.30;;;25.60;30.70;;;;;;5108483;27;45370;-69
2023/06/17 03:17:29;;;;;;;3.83;3.42;;;25.60;30.70;;;;;;5108214;27;45472;-69
2023/06/17 03:19:59;;;;;;;3.60;3.30;;;25.50;30.60;;;;;;5108244;27;45228;-69
2023/06/17 03:22:26;;;;;;;3.70;3.35;;;25.50;30.70;;;;;;5108053;27;45353;-69
2023/06/17 03:24:54;;;;;;;5.13;3.58;;;25.50;30.70;;;;;;5108237;27;45244;-68
2023/06/17 03:27:21;;;;;;;3.65;3.25;;;25.50;30.70;;;;;;5108080;27;45414;-69
2023/06/17 03:29:49;;;;;;;3.72;3.20;;;25.40;30.70;;;;;;5107805;27;46506;-68
2023/06/17 03:32:16;;;;;;;4.35;3.80;;;25.40;30.70;;;;;;5107891;27;45312;-69
2023/06/17 03:34:43;;;;;;;3.90;3.50;;;25.40;30.80;;;;;;5107951;27;45394;-69
2023/06/17 03:37:10;;;;;;;3.50;3.20;;;25.40;30.80;;;;;;5107907;27;45484;-69
2023/06/17 03:39:37;;;;;;;3.45;3.15;;;25.30;30.90;;;;;;5107524;27;46345;-69
2023/06/17 03:42:06;;;;;;;5.47;3.63;;;25.30;31.50;;;;;;5107852;27;45293;-69
2023/06/17 03:44:32;;;;;;;3.50;3.20;;;25.30;30.90;;;;;;5107725;27;45406;-69
2023/06/17 03:47:00;;;;;;;3.92;3.63;;;25.30;30.90;;;;;;5107868;27;45407;-69
2023/06/17 03:49:26;;;;;;;4.50;3.40;;;25.30;31.00;;;;;;5107467;27;46499;-69
2023/06/17 03:51:53;;;;;;;3.60;3.30;;;25.30;31.00;;;;;;5107583;27;45293;-68
2023/06/17 03:54:20;;;;;;;3.55;3.25;;;25.30;31.00;;;;;;5106525;27;45378;-69
2023/06/17 03:56:47;;;;;;;3.88;3.53;;;25.30;31.00;;;;;;5107581;27;45349;-69
2023/06/17 03:59:16;;;;;;;3.47;3.17;;;25.30;31.10;;;;;;5104582;27;45397;-68
2023/06/17 04:01:43;;;;;;;5.97;3.67;;;25.20;31.00;;;;;;5107387;27;45316;-69
2023/06/17 04:04:10;;;;;;;4.28;3.88;;;25.20;31.00;;;;;;5107411;27;45361;-69
2023/06/17 04:06:37;;;;;;;4.00;3.58;;;25.20;31.10;;;;;;5107563;27;45315;-69
2023/06/17 04:09:05;;;;;;;3.72;3.38;;;25.20;31.10;;;;;;5106978;27;45462;-69
2023/06/17 04:11:32;;;;;;;4.45;3.30;;;25.10;31.10;;;;;;5107318;27;45150;-68
2023/06/17 04:13:59;;;;;;;3.90;3.25;;;25.10;31.10;;;;;;5107363;27;45377;-69
2023/06/17 04:16:30;;;;;;;3.50;3.20;;;25.10;31.10;;;;;;5107348;27;45422;-69
2023/06/17 04:18:57;;;;;;;3.45;3.15;;;25.10;31.10;;;;;;5106902;27;46429;-69
2023/06/17 04:21:24;;;;;;;3.63;3.28;;;25.10;31.10;;;;;;5106913;27;45386;-69
2023/06/17 04:23:51;;;;;;;3.40;3.10;;;25.10;31.10;;;;;;5107204;27;45377;-69
2023/06/17 04:26:18;;;;;;;4.70;3.75;;;25.10;31.10;;;;;;5107324;27;45569;-69
2023/06/17 04:28:45;;;;;;;3.88;3.35;;;25.10;31.10;;;;;;5106734;27;45314;-69
2023/06/17 04:31:12;;;;;;;3.38;3.08;;;25.00;31.10;;;;;;5106986;27;45154;-68
2023/06/17 04:33:41;;;;;;;3.50;3.20;;;25.00;31.10;;;;;;5107189;27;45414;-69
2023/06/17 04:36:09;;;;;;;3.85;3.47;;;25.00;31.10;;;;;;5107254;27;45280;-69
2023/06/17 04:38:36;;;;;;;3.63;3.33;;;25.00;31.10;;;;;;5106638;27;45367;-69
2023/06/17 04:41:04;;;;;;;4.00;3.40;;;25.00;31.10;;;;;;5107016;27;45535;-69
2023/06/17 04:43:32;;;;;;;3.75;3.28;;;25.00;31.20;;;;;;5106911;27;45404;-69
2023/06/17 04:46:01;;;;;;;3.88;3.28;;;25.00;31.20;;;;;;5107088;27;45256;-68
2023/06/17 04:48:28;;;;;;;3.85;3.33;;;25.00;31.20;;;;;;5106816;27;47520;-69
2023/06/17 04:50:57;;;;;;;3.58;3.28;;;25.00;31.20;;;;;;5106826;27;45241;-68
2023/06/17 04:53:24;;;;;;;3.70;3.30;;;25.00;31.20;;;;;;5106727;27;45318;-68
2023/06/17 04:55:51;;;;;;;3.80;3.40;;;25.00;31.10;;;;;;5106803;27;45290;-69
2023/06/17 04:58:18;;;;;;;3.75;3.45;;;25.00;31.10;;;;;;5106283;27;47052;-68
2023/06/17 05:00:44;;;;;;;3.42;3.13;;;25.00;31.10;;;;;;5106482;27;45252;-68
2023/06/17 05:03:11;;;;;;;4.75;3.10;;;25.00;31.20;;;;;;5106160;27;45384;-69
2023/06/17 05:05:38;;;;;;;3.70;3.33;;;25.00;31.20;;;;;;5106499;27;45395;-69
2023/06/17 05:08:06;;;;;;;4.88;3.17;;;24.90;31.20;;;;;;5106198;27;45470;-69
2023/06/17 05:10:33;;;;;;;3.65;3.13;;;24.90;31.20;;;;;;5106485;27;45289;-69
2023/06/17 05:13:00;;;;;;;4.60;3.47;;;25.00;31.20;;;;;;5106525;27;45217;-69
2023/06/17 05:15:27;;;;;;;3.70;3.40;;;25.00;31.20;;;;;;5106740;27;45302;-69
2023/06/17 05:17:54;;;;;;;3.22;2.90;;;24.90;31.20;;;;;;5105911;27;46371;-69
2023/06/17 05:20:20;;;;;;;3.42;3.13;;;24.90;31.30;;;;;;5106303;27;45256;-68
2023/06/17 05:22:47;;;;;;;3.55;3.25;;;24.90;31.30;;;;;;5106361;27;45328;-68
2023/06/17 05:25:15;;;;;;;3.90;3.50;;;24.90;31.30;;;;;;5106445;27;45363;-69
2023/06/17 05:27:42;;;;;;;3.55;2.92;;;24.90;31.30;;;;;;5105917;27;46412;-68
2023/06/17 05:30:10;;;;;;;4.00;3.50;;;24.90;31.40;;;;;;5106300;27;45377;-69
2023/06/17 05:32:36;;;;;;;3.70;2.90;;;24.90;31.40;;;;;;5106405;27;45319;-69
2023/06/17 05:35:04;;;;;;;3.60;3.30;;;24.90;31.40;;;;;;5103780;27;45298;-69
2023/06/17 05:37:31;;;;;;;3.45;3.15;;;24.90;31.30;;;;;;5105708;27;45787;-68
2023/06/17 05:39:58;;;;;;;3.63;2.95;;;24.90;31.40;;;;;;5105887;27;45322;-68
2023/06/17 05:42:26;;;;;;;4.32;3.05;;;24.90;31.40;;;;;;5105939;27;45294;-68
2023/06/17 05:44:53;;;;;;;3.28;2.97;;;24.90;31.40;;;;;;5106020;27;45232;-68
2023/06/17 05:47:20;;;;;;;3.53;3.22;;;24.90;31.40;;;;;;5105768;27;46423;-69
2023/06/17 05:49:47;;;;;;;3.53;3.22;;;24.90;31.40;;;;;;5105774;27;45310;-68
2023/06/17 05:52:14;;;;;;;4.47;3.20;;;24.90;31.40;;;;;;5105775;27;45393;-69
2023/06/17 05:54:40;;;;;;;3.72;3.40;;;24.90;31.50;;;;;;5106046;27;45366;-69
2023/06/17 05:57:07;;;;;;;3.35;3.05;;;24.90;31.40;;;;;;5105424;27;46412;-69
2023/06/17 05:59:35;;;;;;;3.60;3.30;;;24.90;31.50;;;;;;5105637;27;45389;-69
2023/06/17 06:02:02;;;;;;;3.75;3.20;;;24.90;31.40;;;;;;5105687;27;45412;-69
2023/06/17 06:04:29;;;;;;;3.38;3.08;;;24.90;31.40;;;;;;5105848;27;45223;-69
2023/06/17 06:06:56;;;;;;;3.15;2.85;;;24.90;31.50;;;;;;5105447;27;45390;-69
2023/06/17 06:09:23;;;;;;;3.72;3.20;;;24.90;31.40;;;;;;5105408;27;45329;-69
2023/06/17 06:11:50;;;;;;;4.07;3.35;;;24.90;31.40;;;;;;5105623;27;45366;-69
2023/06/17 06:14:17;;;;;;;3.97;3.60;;;24.90;31.40;;;;;;5105724;27;45349;-69
2023/06/17 06:16:45;;;;;;;3.47;3.17;;;24.90;31.50;;;;;;5105111;27;47332;-69
2023/06/17 06:19:12;;;;;;;3.67;3.38;;;24.90;31.50;;;;;;5108539;27;45559;-69
2023/06/17 06:21:39;;;;;;;4.00;3.47;;;24.90;31.50;;;;;;5109052;27;45257;-69
2023/06/17 06:24:06;;;;;;;3.30;3.00;;;25.00;31.50;;;;;;5109166;27;45293;-69
2023/06/17 06:26:33;;;;;;;3.95;3.55;;;25.00;31.50;;;;;;5108658;27;45674;-69
2023/06/17 06:29:00;;;;;;;3.63;3.30;;;25.00;32.10;;;;;;5108489;27;45264;-69
2023/06/17 06:31:27;;;;;;;3.70;3.20;;;25.00;32.10;;;;;;5108949;27;45286;-69
2023/06/17 06:33:55;;;;;;;3.72;3.20;;;25.00;31.50;;;;;;5108939;27;45414;-69
2023/06/17 06:36:22;;;;;;;3.58;3.28;;;25.00;31.50;;;;;;5108487;27;45485;-68
2023/06/17 06:38:49;;;;;;;3.55;3.20;;;25.10;31.60;;;;;;5108409;27;45360;-69
2023/06/17 06:41:15;;;;;;;4.90;3.33;;;25.10;31.50;;;;;;5108692;27;45224;-69
2023/06/17 06:43:42;;;;;;;3.53;3.20;;;25.00;31.50;;;;;;5108894;27;45305;-68
2023/06/17 06:46:09;;;;;;;4.45;3.40;;;25.10;31.50;;;;;;5108479;27;45433;-69
2023/06/17 06:48:36;;;;;;;3.75;3.45;;;25.10;31.50;;;;;;5108153;27;45351;-69
2023/06/17 06:51:04;;;;;;;3.83;3.45;;;25.10;31.50;;;;;;5108658;27;45464;-68
2023/06/17 06:53:31;;;;;;;3.47;3.17;;;25.10;31.50;;;;;;5108828;27;45295;-68
2023/06/17 06:55:58;;;;;;;3.67;3.30;;;25.10;31.60;;;;;;5108246;27;45420;-69
2023/06/17 06:58:25;;;;;;;3.30;3.00;;;25.10;31.60;;;;;;5107939;27;45384;-69
2023/06/17 07:00:52;;;;;;;2.95;2.75;;;25.10;31.60;;;;;;5108531;27;45377;-68
2023/06/17 07:03:19;;;;;;;3.45;3.15;;;25.20;31.60;;;;;;5108197;27;45412;-69
2023/06/17 07:05:46;;;;;;;3.42;2.97;;;25.20;31.60;;;;;;5108095;27;46701;-68
2023/06/17 07:08:14;;;;;;;5.07;3.60;;;25.20;31.60;;;;;;5107899;27;45302;-69
2023/06/17 07:10:41;;;;;;;3.80;2.88;;;25.20;31.60;;;;;;5108277;27;45371;-68
2023/06/17 07:13:08;;;;;;;3.35;3.05;;;25.20;31.60;;;;;;5108149;27;45422;-69
2023/06/17 07:15:35;;;;;;;3.55;3.17;;;25.20;31.60;;;;;;5107901;27;45627;-68
2023/06/17 07:18:02;;;;;;;3.90;3.50;;;25.30;31.70;;;;;;5108036;27;45383;-69
2023/06/17 07:20:29;;;;;;;4.28;3.70;;;25.30;31.70;;;;;;5108149;27;45237;-69
2023/06/17 07:22:55;;;;;;;3.25;2.92;;;25.30;31.70;;;;;;5108192;27;45444;-69
2023/06/17 07:25:24;;;;;;;4.00;3.35;;;25.30;31.70;;;;;;5107911;27;46823;-68
2023/06/17 07:27:51;;;;;;;3.65;3.30;;;25.30;31.60;;;;;;5107784;27;45177;-69
2023/06/17 07:30:18;;;;;;;3.17;2.92;;;25.30;31.70;;;;;;5107878;27;45154;-69
2023/06/17 07:32:45;;;;;;;3.85;3.42;;;25.40;31.70;;;;;;5107964;27;45406;-69
2023/06/17 07:35:12;;;;;;;3.13;2.85;;;25.40;31.70;;;;;;5107644;27;45478;-69
2023/06/17 07:37:39;;;;;;;3.50;3.20;;;25.40;31.70;;;;;;5107598;27;45370;-70
2023/06/17 07:40:07;;;;;;;3.65;3.15;;;25.40;31.70;;;;;;5107694;27;45298;-69
2023/06/17 07:42:35;;;;;;;3.78;3.47;;;25.40;31.80;;;;;;5105404;27;45163;-69
2023/06/17 07:45:02;;;;;;;4.30;3.47;;;25.50;31.70;;;;;;5107530;27;46389;-69
2023/06/17 07:47:29;;;;;;;3.55;3.25;;;25.50;31.70;;;;;;5107446;27;45434;-70
2023/06/17 07:49:55;;;;;;;3.67;3.38;;;25.50;31.80;;;;;;5107533;27;45318;-69
2023/06/17 07:52:22;;;;;;;3.35;3.05;;;25.50;31.70;;;;;;5107732;27;45337;-69
2023/06/17 07:54:51;;;;;;;3.35;3.05;;;25.50;31.60;;;;;;5107304;27;46610;-70
2023/06/17 07:57:17;;;;;;;3.42;3.13;;;25.50;31.60;;;;;;5107297;27;45392;-69
2023/06/17 07:59:46;;;;;;;3.60;3.30;;;25.60;31.60;;;;;;5107473;27;45423;-69
2023/06/17 08:02:12;;;;;;;3.50;2.95;;;25.60;31.50;;;;;;5107506;27;45905;-69
2023/06/17 08:04:39;;;;;;;3.63;2.85;;;25.60;31.50;;;;;;5107176;27;46402;-69
2023/06/17 08:07:06;;;;;;;3.40;3.10;;;25.60;31.50;;;;;;5107216;27;45307;-69
2023/06/17 08:09:33;;;;;;;4.55;3.60;;;25.70;31.60;;;;;;5107331;27;45215;-69
2023/06/17 08:12:00;;;;;;;4.43;3.15;;;25.70;31.50;;;;;;5106988;27;45611;-69
2023/06/17 08:14:27;;;;;;;3.75;3.45;;;25.70;31.50;;;;;;5106848;27;46379;-69
2023/06/17 08:16:55;;;;;;;4.10;3.38;;;25.80;31.60;;;;;;5106699;27;45224;-69
2023/06/17 08:19:22;;;;;;;3.63;3.30;;;25.80;31.60;;;;;;5106661;27;45307;-69
2023/06/17 08:21:50;;;;;;;3.50;3.20;;;25.90;31.70;;;;;;5107262;27;45458;-70
2023/06/17 08:24:17;;;;;;;5.35;3.60;;;25.90;31.60;;;;;;5106979;27;45338;-69
2023/06/17 08:26:44;;;;;;;3.88;3.55;;;25.90;31.50;;;;;;5107174;27;45177;-70
2023/06/17 08:29:12;;;;;;;3.78;3.47;;;25.90;31.50;;;;;;5106948;27;45279;-69
2023/06/17 08:31:39;;;;;;;3.53;3.22;;;26.00;31.60;;;;;;5107274;27;45318;-70
2023/06/17 08:34:07;;;;;;;3.65;3.10;;;26.00;31.50;;;;;;5106761;27;46741;-69
2023/06/17 08:36:34;;;;;;;3.67;3.30;;;26.00;32.10;;;;;;5106846;27;45278;-69
2023/06/17 08:39:01;;;;;;;3.60;3.30;;;26.10;31.50;;;;;;5106676;27;45248;-69
2023/06/17 08:41:27;;;;;;;3.72;3.20;;;26.10;31.40;;;;;;5103747;27;45339;-69
2023/06/17 08:43:56;;;;;;;3.40;3.10;;;26.10;31.40;;;;;;5106872;27;45492;-69
2023/06/17 08:46:23;;;;;;;3.38;2.97;;;26.20;31.40;;;;;;5106775;27;45327;-69
2023/06/17 08:48:50;;;;;;;3.58;3.13;;;26.20;31.40;;;;;;5105516;27;45130;-71
2023/06/17 08:51:18;;;;;;;3.80;3.30;;;26.20;31.50;;;;;;5106179;27;45323;-69
2023/06/17 08:53:45;;;;;;;3.85;3.28;;;26.30;31.50;;;;;;5094568;27;46411;-70
2023/06/17 08:56:12;;;;;;;3.90;3.50;;;26.30;31.40;;;;;;5100423;27;45306;-70
2023/06/17 08:58:39;;;;;;;3.47;3.17;;;26.40;31.50;;;;;;5106409;27;45273;-69
2023/06/17 09:01:06;;;;;;;3.65;3.30;;;26.40;31.50;;;;;;5106876;27;45373;-70
2023/06/17 09:03:36;;;;;;;4.15;3.08;;;26.40;31.40;;;;;;5106256;27;46403;-69
2023/06/17 09:06:03;;;;;;;3.50;3.20;;;26.50;31.50;;;;;;5106395;27;45264;-69
2023/06/17 09:08:31;;;;;;;3.58;3.28;;;26.50;31.50;;;;;;5106731;27;45299;-70
2023/06/17 09:11:05;;;;;;;3.40;3.10;;;26.50;31.50;;;;;;5106619;27;45366;-70
2023/06/17 09:13:31;;;;;;;5.07;3.20;;;26.60;31.40;;;;;;5106101;27;48543;-69
2023/06/17 09:15:58;;;;;;;3.90;3.53;;;26.60;31.50;;;;;;5106225;27;45469;-69
2023/06/17 09:18:25;;;;;;;4.07;3.30;;;26.60;31.30;;;;;;5106176;27;45386;-69
2023/06/17 09:20:55;;;;;;;3.70;3.40;;;26.60;31.30;;;;;;5106523;27;45298;-70
2023/06/17 09:23:22;;;;;;;3.83;3.42;;;26.70;31.40;;;;;;5106015;27;46405;-69
2023/06/17 09:25:52;;;;;;;3.92;3.20;;;26.70;31.30;;;;;;5106643;27;45412;-69
2023/06/17 09:28:19;;;;;;;3.70;3.30;;;26.80;31.40;;;;;;5104384;27;46666;-69
2023/06/17 09:30:53;;;;;;;3.70;3.40;;;26.80;31.30;;;;;;5104076;27;45587;-69
2023/06/17 09:33:20;;;;;;;3.58;3.28;;;26.80;31.30;;;;;;5103159;27;46678;-69
2023/06/17 09:35:47;;;;;;;3.92;3.53;;;26.80;31.20;;;;;;5104666;27;45291;-69
2023/06/17 09:38:17;;;;;;;3.42;3.13;;;26.90;31.20;;;;;;5104957;27;45720;-69
2023/06/17 09:40:43;;;;;;;3.45;3.15;;;26.90;31.90;;;;;;5105506;27;45464;-69
2023/06/17 09:43:14;;;;;;;3.10;2.80;;;27.00;31.80;;;;;;5103264;27;45412;-69
2023/06/17 09:45:44;;;;;;;3.45;3.15;;;27.00;31.10;;;;;;5099908;27;45513;-69
2023/06/17 09:48:11;;;;;;;3.13;2.85;;;27.10;31.70;;;;;;5104335;27;45739;-69
2023/06/17 09:50:39;;;;;;;3.72;3.33;;;27.10;32.00;;;;;;5101005;27;45663;-70
2023/06/17 09:53:06;;;;;;;4.20;3.55;;;27.20;32.50;;;;;;5105207;27;45464;-69
2023/06/17 09:55:32;;;;;;;10.80;3.78;;;27.20;32.30;;;;;;5109256;27;45256;-69
2023/06/17 09:58:01;;;;;;;5.43;2.92;;;27.30;33.10;;;;;;5108999;27;45401;-73
2023/06/17 10:00:31;;;;;;;4.13;3.72;;;27.40;33.30;;;;;;5108232;27;45481;-71
2023/06/17 10:02:58;;;;;;;6.95;3.65;;;27.40;33.60;;;;;;5108232;27;45291;-68
2023/06/17 10:05:25;;;;;;;4.32;3.40;;;27.50;33.80;;;;;;5106303;27;45259;-69
2023/06/17 10:07:52;;;;;;;7.43;3.80;;;27.50;33.90;;;;;;5106554;27;45441;-68
2023/06/17 10:10:19;;;;;;;6.28;3.70;;;27.50;33.90;;;;;;5105077;27;45739;-70
2023/06/17 10:12:46;;;;;;;4.80;3.30;;;27.60;33.30;;;;;;5107914;27;45902;-68
2023/06/17 10:15:13;;;;;;;6.53;3.58;;;27.60;33.10;;;;;;5108322;27;45479;-68
2023/06/17 10:17:43;;;;;;;4.43;3.33;;;27.70;33.30;;;;;;5107134;27;45306;-69
2023/06/17 10:20:11;;;;;;;3.47;3.17;;;27.70;33.20;;;;;;5108790;27;45479;-70
2023/06/17 10:22:39;;;;;;;5.28;3.22;;;27.80;33.00;;;;;;5106609;27;46672;-69
2023/06/17 10:25:09;;;;;;;4.03;3.25;;;27.80;33.10;;;;;;5106910;27;45414;-69
2023/06/17 10:27:36;;;;;;;5.72;3.45;;;27.80;32.90;;;;;;5107397;27;45393;-69
2023/06/17 10:30:07;;;;;;;6.20;3.30;;;27.90;32.70;;;;;;5107997;27;45494;-67
2023/06/17 10:32:36;;;;;;;4.13;3.33;;;27.90;32.50;;;;;;5107853;27;45481;-69
2023/06/17 10:35:12;;;;;;;4.20;3.33;;;28.00;32.60;;;;;;5107366;27;45386;-69
2023/06/17 10:37:43;;;;;;;3.65;3.25;;;28.00;32.40;;;;;;5107855;27;45267;-69
2023/06/17 10:40:21;;;;;;;4.60;3.33;;;28.10;32.10;;;;;;5104035;27;45466;-72
2023/06/17 10:42:54;;;;;;;3.92;2.85;;;28.10;31.80;;;;;;5106878;27;45364;-71
2023/06/17 10:45:21;;;;;;;5.38;3.15;;;28.20;31.70;;;;;;5105136;27;45334;-71
2023/06/17 10:47:48;;;;;;;3.83;3.22;;;28.20;31.60;;;;;;5106168;27;45394;-69
2023/06/17 10:50:20;;;;;;;5.38;3.33;;;28.20;31.60;;;;;;5106805;27;45500;-70
2023/06/17 10:52:47;;;;;;;12.20;3.53;;;28.30;31.30;;;;;;5103980;27;46149;-70
2023/06/17 10:55:14;;;;;;;8.50;3.47;;;28.30;31.10;;;;;;5108068;27;45398;-70
2023/06/17 10:57:41;;;;;;;3.55;3.05;;;28.40;33.30;;;;;;5106588;27;45791;-67
2023/06/17 11:00:10;;;;;;;7.85;3.38;;;28.40;35.30;;;;;;5106643;27;45529;-66
2023/06/17 11:02:37;;;;;;;13.65;3.25;;;28.50;36.10;;;;;;5105498;27;46687;-66
2023/06/17 11:05:05;;;;;;;5.75;2.83;;;28.60;36.60;;;;;;5106645;27;45497;-68
2023/06/17 11:07:33;;;;;;;5.55;3.50;;;28.60;36.30;;;;;;5108666;27;45408;-71
2023/06/17 11:10:00;;;;;;;4.45;3.20;;;28.80;35.70;;;;;;5106495;27;45562;-70
2023/06/17 11:12:26;;;;;;;4.25;3.22;;;28.90;35.80;;;;;;5107040;27;47107;-69
2023/06/17 11:14:54;;;;;;;4.68;3.10;;;29.00;33.90;;;;;;5108235;27;45408;-67
2023/06/17 11:17:21;;;;;;;5.30;3.35;;;29.00;33.10;;;;;;5108265;27;45573;-70
2023/06/17 11:19:48;;;;;;;3.88;3.50;;;29.10;34.40;;;;;;5108355;27;45332;-72
2023/06/17 11:22:15;;;;;;;5.85;3.35;;;29.10;30.80;;;;;;5107357;27;45524;-71
2023/06/17 11:24:45;;;;;;;4.15;3.35;;;29.20;29.50;;;;;;5099301;27;45372;-70
2023/06/17 11:27:12;;;;;;;5.90;3.30;;;29.30;29.90;;;;;;5107816;27;45528;-72
2023/06/17 11:29:41;;;;;;;4.70;3.17;;;29.30;28.80;;;;;;5107118;27;45434;-73
2023/06/17 11:32:08;;;;;;;5.13;3.70;;;29.50;28.50;;;;;;5112273;27;46535;-70
2023/06/17 11:34:35;;;;;;;10.13;3.55;;;29.60;27.50;;;;;;5107837;27;45299;-69
2023/06/17 11:37:06;;;;;;;6.05;3.30;;;29.70;27.80;;;;;;5108524;27;45527;-71
2023/06/17 11:39:33;;;;;;;3.90;3.28;;;29.80;27.00;;;;;;5108330;27;45424;-68
2023/06/17 11:42:02;;;;;;;4.38;3.15;;;29.90;26.80;;;;;;5104053;27;45889;-71
2023/06/17 11:44:29;;;;;;;3.95;3.22;;;30.00;26.90;;;;;;5099472;27;45233;-70
2023/06/17 11:46:56;;;;;;;5.13;3.80;;;30.20;27.60;;;;;;5105950;27;45562;-69
2023/06/17 11:49:25;;;;;;;6.00;3.13;;;30.20;27.50;;;;;;5107123;27;45273;-72
2023/06/17 11:51:52;;;;;;;20.85;3.85;;;30.30;29.10;;;;;;5106996;27;46286;-70
2023/06/17 11:54:19;;;;;;;8.48;3.65;;;30.40;29.00;;;;;;5106605;27;45409;-74
2023/06/17 11:56:46;;;;;;;4.28;3.38;;;30.50;29.90;;;;;;5099942;27;45389;-73
2023/06/17 11:59:14;;;;;;;5.00;3.50;;;30.50;29.00;;;;;;5107179;27;45582;-70
2023/06/17 12:01:41;;;;;;;4.75;3.28;;;30.70;26.40;;;;;;5106521;27;45431;-70
2023/06/17 12:04:09;;;;;;;3.72;3.33;;;30.90;26.00;;;;;;5105448;27;46367;-71
2023/06/17 12:06:36;;;;;;;4.05;3.58;;;31.00;25.50;;;;;;5106563;27;45430;-71
2023/06/17 12:09:03;;;;;;;3.67;3.38;;;31.10;24.80;;;;;;5105522;27;45268;-68
2023/06/17 12:11:32;;;;;;;3.60;3.22;;;31.10;25.20;;;;;;5106306;27;45503;-70
2023/06/17 12:13:59;;;;;;;4.95;3.20;;;31.20;24.90;;;;;;5107358;27;45430;-70
2023/06/17 12:16:30;;;;;;;4.07;3.20;;;31.30;24.90;;;;;;5104302;27;45349;-70
2023/06/17 12:18:57;;;;;;;4.70;3.50;;;31.30;24.60;;;;;;5105934;27;45592;-70
2023/06/17 12:21:24;;;;;;;3.35;3.05;;;31.40;24.50;;;;;;5104056;27;45361;-70
2023/06/17 12:23:53;;;;;;;5.97;3.50;;;31.50;24.30;;;;;;5104812;27;45422;-71
2023/06/17 12:26:20;;;;;;;3.63;3.33;;;31.50;24.60;;;;;;5106211;27;45474;-76
2023/06/17 12:28:47;;;;;;;3.63;3.13;;;31.50;24.30;;;;;;5105791;27;45315;-69
2023/06/17 12:31:14;;;;;;;4.50;3.35;;;31.60;24.50;;;;;;5105729;27;45486;-68
2023/06/17 12:33:43;;;;;;;5.80;3.90;;;31.70;23.80;;;;;;5106760;27;45276;-69
2023/06/17 12:36:10;;;;;;;4.28;3.50;;;31.70;23.90;;;;;;5105847;27;45364;-71
2023/06/17 12:38:37;;;;;;;4.90;3.42;;;31.80;23.80;;;;;;5107419;27;45307;-68
2023/06/17 12:41:04;;;;;;;3.45;3.05;;;31.90;23.60;;;;;;5106788;27;47293;-68
2023/06/17 12:43:31;;;;;;;3.75;3.35;;;31.90;23.60;;;;;;5106993;27;45349;-70
2023/06/17 12:45:58;;;;;;;4.10;3.70;;;32.00;24.00;;;;;;5104584;27;45296;-66